Time;durP1;ratioP1;P1;durP2;ratioP2;P2;SDS_P1;SDS_P2;PMS_P1;PMS_P2;Temp;Humidity;BMP_temperature;BMP_pressure;BME280_temperature;BME280_humidity;BME280_pressure;Samples;Min_cycle;Max_cycle;Signal;HPM_P1;HPM_P2
2021/05/27 00:00:12;;;;;;;1.57;1.00;;;;;;;15.04;99.85;98088.69;5001869;28;20207;-73
2021/05/27 00:02:38;;;;;;;1.17;0.97;;;;;;;15.21;99.00;98090.53;4985897;28;20215;-71
2021/05/27 00:05:07;;;;;;;2.27;0.90;;;;;;;15.29;98.71;98092.06;4999225;28;20302;-72
2021/05/27 00:07:34;;;;;;;1.67;1.03;;;;;;;14.94;100.00;98097.28;4992656;28;20207;-73
2021/05/27 00:10:02;;;;;;;3.23;1.10;;;;;;;14.51;100.00;98101.94;4998806;28;20228;-72
2021/05/27 00:12:28;;;;;;;1.10;0.90;;;;;;;14.54;100.00;98097.97;4997330;28;20207;-72
2021/05/27 00:14:55;;;;;;;1.77;1.27;;;;;;;15.06;99.52;98100.84;4996347;28;20581;-74
2021/05/27 00:17:22;;;;;;;1.87;1.00;;;;;;;15.10;97.87;98106.59;5003348;28;20227;-73
2021/05/27 00:19:49;;;;;;;1.13;0.97;;;;;;;14.71;100.00;98102.53;4999259;28;20206;-72
2021/05/27 00:22:16;;;;;;;1.30;0.90;;;;;;;14.97;100.00;98101.38;4997332;28;20553;-72
2021/05/27 00:24:43;;;;;;;1.13;0.97;;;;;;;15.34;98.21;98100.31;5000187;28;20207;-72
2021/05/27 00:27:10;;;;;;;1.30;1.10;;;;;;;14.69;100.00;98103.81;4998930;28;20614;-73
2021/05/27 00:29:37;;;;;;;1.20;0.83;;;;;;;14.98;97.88;98106.53;4998688;28;20231;-72
2021/05/27 00:32:04;;;;;;;1.23;1.00;;;;;;;15.29;97.51;98110.91;4998334;28;20365;-73
2021/05/27 00:34:31;;;;;;;1.10;0.90;;;;;;;15.34;96.58;98103.00;5006576;28;20226;-72
2021/05/27 00:36:58;;;;;;;1.53;1.00;;;;;;;15.41;96.40;98101.03;5001797;28;20227;-74
2021/05/27 00:39:25;;;;;;;1.17;0.83;;;;;;;15.29;98.01;98094.75;4996346;28;20811;-71
2021/05/27 00:41:52;;;;;;;2.90;1.30;;;;;;;14.76;100.00;98105.38;4992886;28;20215;-72
2021/05/27 00:44:21;;;;;;;2.30;1.13;;;;;;;14.82;100.00;98099.09;4997604;28;20234;-71
2021/05/27 00:46:48;;;;;;;2.03;1.10;;;;;;;14.63;100.00;98102.03;5002334;28;20224;-73
2021/05/27 00:49:14;;;;;;;1.10;1.00;;;;;;;14.82;99.39;98099.09;4994292;28;20227;-72
2021/05/27 00:51:42;;;;;;;2.03;1.23;;;;;;;15.13;97.55;98106.97;4994132;28;20211;-70
2021/05/27 00:54:09;;;;;;;1.50;0.90;;;;;;;15.47;94.67;98106.31;5000354;28;20553;-73
2021/05/27 00:56:36;;;;;;;2.37;1.00;;;;;;;15.30;95.56;98107.16;4999691;28;20232;-72
2021/05/27 00:59:04;;;;;;;2.70;1.10;;;;;;;15.30;96.46;98101.78;4992664;28;20200;-74
2021/05/27 01:01:32;;;;;;;1.30;0.90;;;;;;;15.19;96.93;98114.09;5005018;28;20646;-73
2021/05/27 01:03:59;;;;;;;1.50;1.10;;;;;;;15.20;97.36;98107.69;4994059;28;20210;-72
2021/05/27 01:06:25;;;;;;;1.17;1.00;;;;;;;15.23;95.88;98120.69;4995123;28;20756;-74
2021/05/27 01:08:53;;;;;;;1.67;1.37;;;;;;;15.51;94.70;98112.03;4982669;28;20215;-72
2021/05/27 01:11:19;;;;;;;3.93;1.00;;;;;;;15.49;94.86;98119.50;4992290;28;20203;-73
2021/05/27 01:13:46;;;;;;;1.87;0.90;;;;;;;15.32;95.01;98118.50;4996895;28;20657;-73
2021/05/27 01:16:13;;;;;;;2.17;1.20;;;;;;;15.40;94.64;98116.31;4998832;28;20240;-71
2021/05/27 01:18:41;;;;;;;1.50;1.07;;;;;;;15.36;95.53;98125.94;4988206;28;20207;-72
2021/05/27 01:21:08;;;;;;;1.30;0.90;;;;;;;15.25;94.70;98125.84;4999487;28;20212;-74
2021/05/27 01:23:36;;;;;;;1.87;0.90;;;;;;;15.23;94.37;98127.91;4996061;28;20204;-73
2021/05/27 01:26:05;;;;;;;1.57;1.03;;;;;;;15.50;93.08;98123.88;4984249;28;20228;-75
2021/05/27 01:28:33;;;;;;;1.10;1.00;;;;;;;15.69;92.75;98122.72;4991365;28;20203;-73
2021/05/27 01:31:01;;;;;;;1.63;1.10;;;;;;;15.76;91.53;98132.34;4997388;28;20248;-72
2021/05/27 01:33:28;;;;;;;1.03;0.97;;;;;;;15.04;97.63;98131.69;4981890;28;20215;-73
2021/05/27 01:35:56;;;;;;;1.47;1.00;;;;;;;15.49;95.35;98132.97;4987485;28;20696;-74
2021/05/27 01:38:24;;;;;;;1.70;1.40;;;;;;;15.45;94.09;98137.19;4986743;28;20248;-72
2021/05/27 01:40:53;;;;;;;2.00;1.23;;;;;;;15.02;99.12;98131.91;4990135;28;20574;-73
2021/05/27 01:43:21;;;;;;;1.37;1.00;;;;;;;14.67;100.00;98140.78;4993908;28;20205;-73
2021/05/27 01:45:49;;;;;;;1.00;1.00;;;;;;;15.24;98.58;98130.38;4998662;28;20231;-73
2021/05/27 01:48:16;;;;;;;1.10;1.00;;;;;;;14.83;100.00;98127.59;4994624;28;20212;-73
2021/05/27 01:50:44;;;;;;;1.73;1.17;;;;;;;15.03;100.00;98135.41;4989857;28;20223;-72
2021/05/27 01:53:11;;;;;;;2.40;1.30;;;;;;;15.39;97.91;98124.63;4988273;28;20258;-70
2021/05/27 01:55:41;;;;;;;1.37;1.20;;;;;;;14.91;99.82;98138.06;4996130;28;20232;-74
2021/05/27 01:58:09;;;;;;;1.40;1.23;;;;;;;14.52;100.00;98126.91;5001018;28;20211;-71
2021/05/27 02:00:37;;;;;;;2.73;1.80;;;;;;;14.83;100.00;98130.28;4994626;28;20294;-71
2021/05/27 02:03:04;;;;;;;1.63;1.10;;;;;;;15.21;95.30;98130.84;5000228;28;20216;-70
2021/05/27 02:05:31;;;;;;;1.40;0.97;;;;;;;15.29;94.67;98125.13;4998781;28;20235;-72
2021/05/27 02:07:58;;;;;;;2.03;1.30;;;;;;;15.61;93.00;98126.56;4992964;28;20551;-71
2021/05/27 02:10:25;;;;;;;1.73;1.10;;;;;;;15.29;94.49;98130.53;5002820;28;20228;-72
2021/05/27 02:12:52;;;;;;;1.30;1.10;;;;;;;15.04;95.43;98129.81;4986235;28;20219;-70
2021/05/27 02:15:19;;;;;;;3.57;1.33;;;;;;;15.27;94.42;98134.47;4996396;28;20288;-72
2021/05/27 02:17:46;;;;;;;2.50;1.10;;;;;;;14.66;98.20;98131.09;4988503;28;20216;-72
2021/05/27 02:20:13;;;;;;;2.07;1.20;;;;;;;15.26;95.22;98135.53;5002419;28;20204;-71
2021/05/27 02:22:40;;;;;;;5.33;1.50;;;;;;;15.22;94.57;98132.50;4998166;28;20214;-72
2021/05/27 02:25:08;;;;;;;1.40;1.10;;;;;;;15.14;96.94;98130.09;5000165;28;20214;-71
2021/05/27 02:27:35;;;;;;;1.80;1.10;;;;;;;14.73;96.60;98139.91;5006224;28;20204;-72
2021/05/27 02:30:02;;;;;;;2.50;1.23;;;;;;;14.98;96.51;98144.16;4997461;28;20224;-70
2021/05/27 02:32:30;;;;;;;3.03;1.20;;;;;;;14.52;98.31;98140.34;5002253;28;20203;-70
2021/05/27 02:34:56;;;;;;;2.50;1.30;;;;;;;14.96;96.13;98143.56;4991210;28;20306;-69
2021/05/27 02:37:23;;;;;;;1.10;0.90;;;;;;;14.93;95.84;98133.25;4996770;28;20233;-71
2021/05/27 02:39:51;;;;;;;1.70;1.30;;;;;;;14.84;96.84;98134.59;4990458;28;20208;-72
2021/05/27 02:42:18;;;;;;;2.53;1.37;;;;;;;14.87;95.94;98138.72;5001777;28;20593;-70
2021/05/27 02:44:47;;;;;;;1.90;0.90;;;;;;;15.21;92.64;98144.28;4997478;28;20218;-73
2021/05/27 02:47:14;;;;;;;1.33;1.07;;;;;;;15.14;95.06;98150.81;4992971;28;20231;-71
2021/05/27 02:49:41;;;;;;;1.40;1.27;;;;;;;15.05;94.47;98150.25;4992632;28;20231;-69
2021/05/27 02:52:08;;;;;;;4.07;1.00;;;;;;;14.85;96.02;98143.50;4994865;28;20207;-70
2021/05/27 02:54:35;;;;;;;1.57;1.13;;;;;;;14.95;95.55;98155.34;4989418;28;20252;-70
2021/05/27 02:57:02;;;;;;;1.77;0.90;;;;;;;15.15;95.36;98152.44;4992389;28;20235;-70
2021/05/27 02:59:28;;;;;;;1.90;1.20;;;;;;;15.46;93.94;98160.31;4986972;28;20289;-71
2021/05/27 03:01:55;;;;;;;1.23;1.03;;;;;;;15.42;93.37;98154.59;4998811;28;20207;-70
2021/05/27 03:04:22;;;;;;;2.40;1.33;;;;;;;15.32;93.53;98153.44;4991968;28;20264;-70
2021/05/27 03:06:50;;;;;;;1.87;1.20;;;;;;;15.42;92.95;98159.13;4980487;28;20290;-69
2021/05/27 03:09:17;;;;;;;1.43;1.20;;;;;;;15.29;93.53;98151.22;4989143;28;20214;-70
2021/05/27 03:11:44;;;;;;;1.40;1.30;;;;;;;15.21;94.00;98154.22;4996221;28;20199;-70
2021/05/27 03:14:10;;;;;;;1.63;1.40;;;;;;;15.18;93.55;98146.59;4992237;28;20216;-71
2021/05/27 03:16:37;;;;;;;1.57;1.13;;;;;;;15.55;91.17;98154.38;4987098;28;20382;-70
2021/05/27 03:19:04;;;;;;;2.07;1.10;;;;;;;15.30;92.44;98140.22;4993884;28;20203;-70
2021/05/27 03:21:31;;;;;;;1.87;1.10;;;;;;;15.15;93.48;98141.69;4991402;28;20575;-71
2021/05/27 03:23:59;;;;;;;1.40;1.10;;;;;;;14.91;93.65;98137.22;4990824;28;20216;-71
2021/05/27 03:26:25;;;;;;;2.07;1.50;;;;;;;14.87;94.95;98142.22;4987200;28;20235;-69
2021/05/27 03:28:52;;;;;;;3.93;1.30;;;;;;;14.78;95.62;98132.81;4999620;28;20211;-72
2021/05/27 03:31:19;;;;;;;1.67;1.37;;;;;;;15.04;95.31;98134.38;4995208;28;20227;-72
2021/05/27 03:33:46;;;;;;;1.97;1.20;;;;;;;14.91;94.78;98126.47;4997602;28;20657;-71
2021/05/27 03:36:12;;;;;;;2.07;1.50;;;;;;;14.55;97.66;98129.16;5003368;28;20318;-72
2021/05/27 03:38:39;;;;;;;2.00;1.20;;;;;;;14.70;96.64;98129.63;4991516;28;20211;-70
2021/05/27 03:41:07;;;;;;;3.60;1.40;;;;;;;15.12;94.48;98123.31;4997814;28;20211;-73
2021/05/27 03:43:34;;;;;;;2.87;1.30;;;;;;;14.49;99.49;98135.44;4999345;28;20200;-70
2021/05/27 03:46:02;;;;;;;1.77;1.20;;;;;;;15.00;96.72;98142.06;5001181;28;20236;-73
2021/05/27 03:48:29;;;;;;;1.90;1.47;;;;;;;15.17;93.85;98131.50;4999300;28;20214;-73
2021/05/27 03:50:55;;;;;;;2.37;1.40;;;;;;;14.55;98.49;98134.53;4992948;28;20228;-73
2021/05/27 03:53:22;;;;;;;3.07;1.73;;;;;;;14.96;96.42;98126.63;4997549;28;20203;-72
2021/05/27 03:55:49;;;;;;;2.43;1.40;;;;;;;14.93;95.53;98132.44;5003607;28;20233;-71
2021/05/27 04:01:01;;;;;;;1.83;1.23;;;;;;;14.64;97.80;98125.94;4998079;28;20572;-71
2021/05/27 04:07:03;;;;;;;4.03;1.47;;;;;;;14.88;97.62;98134.97;4996064;28;20660;-75
2021/05/27 04:08:59;;;;;;;2.23;1.60;;;;;;;14.86;96.40;98121.78;5003729;28;20217;-72
2021/05/27 04:11:26;;;;;;;2.10;1.90;;;;;;;14.67;97.60;98135.44;4999364;28;20706;-72
2021/05/27 04:13:54;;;;;;;4.43;1.50;;;;;;;14.79;97.62;98125.59;4990735;28;20220;-73
2021/05/27 04:16:21;;;;;;;1.97;1.40;;;;;;;14.60;97.87;98127.47;5005889;28;20701;-71
2021/05/27 04:18:48;;;;;;;1.73;1.40;;;;;;;14.94;97.31;98120.66;5002133;28;20595;-71
2021/05/27 04:21:15;;;;;;;1.33;1.23;;;;;;;14.98;96.68;98138.78;4996866;28;20196;-73
2021/05/27 04:23:41;;;;;;;3.50;1.33;;;;;;;14.68;98.60;98129.00;4986917;28;20204;-70
2021/05/27 04:26:10;;;;;;;1.60;1.50;;;;;;;14.97;97.29;98133.63;4996529;28;20231;-72
2021/05/27 04:28:37;;;;;;;2.50;1.37;;;;;;;14.92;97.36;98147.75;4999852;28;20211;-72
2021/05/27 04:31:12;;;;;;;1.93;1.50;;;;;;;15.02;97.28;98148.03;5002397;28;20725;-72
2021/05/27 04:33:40;;;;;;;1.80;1.50;;;;;;;14.67;99.04;98140.78;4991186;28;20208;-71
2021/05/27 04:36:07;;;;;;;1.97;1.37;;;;;;;15.15;96.34;98147.06;4999075;28;20227;-71
2021/05/27 04:38:34;;;;;;;3.90;1.50;;;;;;;14.92;98.75;98141.53;4993304;28;20210;-71
2021/05/27 04:41:01;;;;;;;2.60;1.40;;;;;;;15.25;96.03;98141.97;4993504;28;20212;-72
2021/05/27 04:43:28;;;;;;;1.70;1.50;;;;;;;15.45;94.85;98147.94;4990237;28;20203;-71
2021/05/27 04:45:55;;;;;;;3.00;1.77;;;;;;;15.24;95.39;98146.50;4988614;28;20308;-71
2021/05/27 04:48:22;;;;;;;2.17;1.47;;;;;;;16.10;90.82;98155.00;4991192;28;20211;-72
2021/05/27 04:50:50;;;;;;;1.93;1.43;;;;;;;16.07;90.42;98163.53;4994176;28;20238;-73
2021/05/27 04:53:17;;;;;;;1.80;1.40;;;;;;;16.08;91.08;98166.00;4995853;28;20211;-73
2021/05/27 04:55:45;;;;;;;2.70;1.50;;;;;;;15.74;92.46;98171.28;4994221;28;20593;-71
2021/05/27 04:58:12;;;;;;;2.30;1.27;;;;;;;16.10;89.83;98165.75;4986425;28;20218;-74
2021/05/27 05:00:39;;;;;;;1.63;1.30;;;;;;;15.79;93.87;98168.72;4992276;28;20653;-74
2021/05/27 05:03:06;;;;;;;1.93;1.40;;;;;;;16.38;88.50;98174.84;4992095;28;20263;-74
2021/05/27 05:05:35;;;;;;;3.40;1.20;;;;;;;16.07;88.31;98168.94;4998504;28;20233;-71
2021/05/27 05:08:03;;;;;;;2.70;1.23;;;;;;;16.19;87.68;98180.53;4996557;28;20208;-74
2021/05/27 05:10:30;;;;;;;3.37;1.30;;;;;;;16.76;83.27;98185.19;5002827;28;20271;-75
2021/05/27 05:12:57;;;;;;;3.07;1.17;;;;;;;16.95;83.94;98189.34;5002859;28;20209;-73
2021/05/27 05:15:25;;;;;;;1.73;1.30;;;;;;;16.12;88.37;98180.63;4993271;28;20235;-74
2021/05/27 05:17:54;;;;;;;3.43;1.37;;;;;;;17.15;83.77;98190.63;4990295;28;20258;-72
2021/05/27 05:20:23;;;;;;;1.77;1.20;;;;;;;17.11;80.00;98189.44;4997260;28;20200;-72
2021/05/27 05:22:51;;;;;;;1.07;0.97;;;;;;;16.74;81.30;98193.50;4995904;28;20205;-73
2021/05/27 05:25:18;;;;;;;7.47;1.67;;;;;;;17.03;79.75;98192.50;4996250;28;20306;-72
2021/05/27 05:27:45;;;;;;;1.53;0.97;;;;;;;17.35;76.56;98201.81;4999657;28;20210;-72
2021/05/27 05:30:14;;;;;;;2.17;1.10;;;;;;;17.23;76.88;98203.72;4988057;28;20565;-74
2021/05/27 05:32:41;;;;;;;2.13;1.00;;;;;;;17.20;76.83;98209.59;4998075;28;20222;-75
2021/05/27 05:35:10;;;;;;;2.10;1.03;;;;;;;17.26;75.15;98205.94;4984760;28;20288;-73
2021/05/27 05:37:37;;;;;;;1.23;0.90;;;;;;;17.29;74.62;98218.13;5000808;28;20240;-75
2021/05/27 05:40:08;;;;;;;2.13;0.90;;;;;;;16.68;77.21;98220.56;4989933;28;20203;-72
2021/05/27 05:42:35;;;;;;;1.20;1.10;;;;;;;16.86;76.79;98223.09;5005518;28;20196;-78
2021/05/27 05:45:02;;;;;;;3.80;1.10;;;;;;;17.50;72.79;98229.16;5000797;28;20206;-80
2021/05/27 05:47:29;;;;;;;2.07;1.00;;;;;;;17.57;72.60;98224.44;5002799;28;20201;-72
2021/05/27 05:49:56;;;;;;;1.97;1.00;;;;;;;17.51;72.21;98232.66;4993191;28;20712;-73
2021/05/27 05:52:23;;;;;;;1.80;1.00;;;;;;;16.93;75.19;98223.81;4983626;28;20206;-73
2021/05/27 05:54:50;;;;;;;3.30;0.93;;;;;;;17.08;73.30;98213.38;4995011;28;20210;-75
2021/05/27 05:57:18;;;;;;;2.43;1.20;;;;;;;17.82;71.95;98226.78;4982241;28;20699;-70
2021/05/27 05:59:44;;;;;;;2.33;1.23;;;;;;;17.42;71.83;98226.00;4985873;28;20208;-71
2021/05/27 06:02:11;;;;;;;5.43;1.47;;;;;;;17.59;70.13;98227.69;4995140;28;20285;-70
2021/05/27 06:04:38;;;;;;;1.43;0.90;;;;;;;17.61;69.27;98231.00;4995932;28;20218;-70
2021/05/27 06:07:05;;;;;;;3.03;1.30;;;;;;;18.06;66.60;98239.97;4998946;28;20268;-71
2021/05/27 06:09:32;;;;;;;2.30;0.90;;;;;;;17.57;66.58;98229.81;4999363;28;21038;-74
2021/05/27 06:11:59;;;;;;;3.90;1.10;;;;;;;18.07;67.00;98232.66;4989815;28;20214;-72
2021/05/27 06:14:27;;;;;;;3.10;1.00;;;;;;;17.88;65.70;98237.44;4992661;28;20215;-73
2021/05/27 06:16:56;;;;;;;0.90;0.77;;;;;;;18.67;62.27;98245.38;4998081;28;20339;-76
2021/05/27 06:19:23;;;;;;;1.00;0.90;;;;;;;18.37;63.16;98252.13;4988335;28;20223;-73
2021/05/27 06:21:50;;;;;;;1.30;0.93;;;;;;;17.82;63.04;98251.91;4987021;28;20211;-73
2021/05/27 06:24:17;;;;;;;2.30;0.93;;;;;;;18.28;63.61;98249.00;4982407;28;20207;-74
2021/05/27 06:26:43;;;;;;;1.53;1.20;;;;;;;18.28;61.80;98259.81;4987621;28;20651;-78
2021/05/27 06:29:10;;;;;;;0.90;0.80;;;;;;;18.51;58.99;98264.28;4985911;28;20203;-71
2021/05/27 06:31:38;;;;;;;4.13;1.00;;;;;;;18.74;58.79;98267.63;4991626;28;20777;-73
2021/05/27 06:34:05;;;;;;;0.80;0.73;;;;;;;18.57;55.86;98274.94;4984704;28;20627;-72
2021/05/27 06:36:32;;;;;;;1.73;0.90;;;;;;;18.32;57.19;98276.34;4986916;28;20233;-74
2021/05/27 06:38:59;;;;;;;2.77;1.10;;;;;;;17.81;58.62;98276.44;4987059;28;20558;-71
2021/05/27 06:41:26;;;;;;;2.80;0.90;;;;;;;18.65;57.90;98271.00;4996442;28;20196;-72
2021/05/27 06:43:53;;;;;;;1.63;1.00;;;;;;;18.58;54.54;98281.16;4993403;28;20212;-72
2021/05/27 06:46:21;;;;;;;1.40;0.97;;;;;;;18.87;55.12;98277.31;4990322;28;20267;-73
2021/05/27 06:48:48;;;;;;;3.63;0.80;;;;;;;18.25;58.51;98275.69;4991217;28;20228;-75
2021/05/27 06:51:15;;;;;;;4.30;1.10;;;;;;;19.17;52.47;98283.19;4991079;28;20221;-72
2021/05/27 06:53:42;;;;;;;1.73;0.90;;;;;;;19.14;53.61;98276.38;4988247;28;20212;-72
2021/05/27 06:56:09;;;;;;;1.47;0.93;;;;;;;19.53;51.79;98278.03;4986733;28;20248;-72
2021/05/27 06:58:36;;;;;;;2.23;1.20;;;;;;;19.78;50.66;98283.78;4992548;28;20209;-71
2021/05/27 07:01:03;;;;;;;2.20;0.77;;;;;;;20.62;47.91;98282.25;4980376;28;20225;-71
2021/05/27 07:03:29;;;;;;;3.47;0.90;;;;;;;19.76;51.08;98285.91;5011127;28;20291;-70
2021/05/27 07:05:59;;;;;;;1.67;0.80;;;;;;;20.65;46.53;98295.28;5008303;28;20230;-72
2021/05/27 07:08:26;;;;;;;0.87;0.80;;;;;;;19.38;49.29;98298.66;4999956;28;20206;-70
2021/05/27 07:10:53;;;;;;;2.43;0.83;;;;;;;20.22;48.44;98287.28;5002421;28;21105;-70
2021/05/27 07:13:25;;;;;;;2.33;0.97;;;;;;;19.84;48.67;98293.59;5005204;28;20206;-70
2021/05/27 07:15:52;;;;;;;4.37;0.90;;;;;;;19.15;51.00;98299.66;5013070;28;20718;-70
2021/05/27 07:18:19;;;;;;;1.47;0.90;;;;;;;19.26;46.98;98306.88;5007602;28;20216;-70
2021/05/27 07:20:49;;;;;;;3.83;1.30;;;;;;;18.99;48.78;98311.31;5001837;28;20661;-71
2021/05/27 07:23:18;;;;;;;3.33;0.73;;;;;;;18.67;48.36;98304.84;5002401;28;20196;-71
2021/05/27 07:25:52;;;;;;;2.60;0.90;;;;;;;18.75;48.42;98301.72;5004768;28;20286;-70
2021/05/27 07:28:22;;;;;;;1.63;0.90;;;;;;;19.36;47.66;98300.81;4997658;28;20199;-71
2021/05/27 07:30:49;;;;;;;1.60;0.80;;;;;;;19.21;47.74;98304.06;5004689;28;20243;-71
2021/05/27 07:33:20;;;;;;;1.57;1.00;;;;;;;19.54;48.20;98305.91;5015209;28;20209;-72
2021/05/27 07:35:47;;;;;;;1.53;0.80;;;;;;;18.92;46.88;98307.97;4997303;28;20241;-70
2021/05/27 07:38:19;;;;;;;1.57;0.90;;;;;;;18.53;46.70;98308.09;4999469;28;20205;-73
2021/05/27 07:40:46;;;;;;;4.00;1.10;;;;;;;18.34;47.76;98306.69;4989923;28;20210;-71
2021/05/27 07:43:13;;;;;;;4.17;1.10;;;;;;;18.27;50.05;98292.47;5004354;28;20331;-69
2021/05/27 07:45:41;;;;;;;4.80;0.97;;;;;;;18.65;49.46;98287.22;5003503;28;20283;-71
2021/05/27 07:48:09;;;;;;;1.90;0.87;;;;;;;18.50;48.22;98303.19;5005924;28;20208;-70
2021/05/27 07:50:45;;;;;;;2.03;1.07;;;;;;;18.81;48.87;98300.75;4999385;28;20236;-70
2021/05/27 07:53:16;;;;;;;3.07;1.07;;;;;;;18.76;48.75;98289.88;5004497;28;20215;-69
2021/05/27 07:55:44;;;;;;;2.30;0.90;;;;;;;19.33;46.33;98301.28;4993113;28;20737;-71
2021/05/27 07:58:10;;;;;;;1.20;0.70;;;;;;;19.85;45.87;98292.53;4999077;28;20222;-70
2021/05/27 08:00:37;;;;;;;4.10;0.90;;;;;;;20.34;42.89;98299.63;5006545;28;20236;-71
2021/05/27 08:03:04;;;;;;;3.27;1.13;;;;;;;19.64;45.24;98312.28;4992232;28;20209;-70
2021/05/27 08:05:31;;;;;;;1.03;0.80;;;;;;;18.72;45.73;98304.94;5000242;28;20774;-71
2021/05/27 08:07:58;;;;;;;2.83;0.90;;;;;;;19.76;44.04;98302.16;4993736;28;20297;-71
2021/05/27 08:10:25;;;;;;;3.97;1.10;;;;;;;19.75;45.33;98305.13;4992547;28;20251;-71
2021/05/27 08:12:56;;;;;;;2.80;0.80;;;;;;;20.42;42.63;98306.47;4994724;28;20211;-72
2021/05/27 08:15:23;;;;;;;2.17;0.80;;;;;;;19.38;43.50;98323.84;4993640;28;20647;-72
2021/05/27 08:17:49;;;;;;;3.20;0.80;;;;;;;19.71;43.49;98317.53;4991150;28;20214;-72
2021/05/27 08:20:16;;;;;;;2.83;0.87;;;;;;;20.22;43.00;98309.75;5002009;28;20302;-73
2021/05/27 08:22:43;;;;;;;1.30;0.90;;;;;;;21.15;41.45;98314.72;4994867;28;20207;-73
2021/05/27 08:25:10;;;;;;;3.33;0.97;;;;;;;20.63;41.89;98317.22;4995889;28;20275;-72
2021/05/27 08:27:37;;;;;;;1.70;0.73;;;;;;;20.74;39.67;98327.13;5002902;28;20222;-73
2021/05/27 08:30:06;;;;;;;1.93;0.97;;;;;;;20.51;39.79;98319.28;4992666;28;20322;-74
2021/05/27 08:32:33;;;;;;;1.10;0.90;;;;;;;20.13;41.38;98308.59;5001867;28;20208;-74
2021/05/27 08:35:00;;;;;;;1.87;1.03;;;;;;;20.62;39.41;98318.31;4997595;28;20220;-73
2021/05/27 08:37:27;;;;;;;4.03;1.00;;;;;;;20.38;40.16;98321.59;4990497;28;20200;-72
2021/05/27 08:39:54;;;;;;;2.53;0.90;;;;;;;20.64;39.93;98312.63;4993611;28;20205;-72
2021/05/27 08:42:22;;;;;;;2.07;0.90;;;;;;;21.09;40.19;98307.63;4992503;28;20600;-71
2021/05/27 08:44:50;;;;;;;6.77;0.90;;;;;;;21.81;39.01;98309.44;4996604;28;20298;-71
2021/05/27 08:47:18;;;;;;;11.67;1.27;;;;;;;20.33;40.99;98308.00;4988773;28;20231;-71
2021/05/27 08:49:48;;;;;;;1.43;0.67;;;;;;;19.94;41.41;98319.97;4993274;28;20215;-72
2021/05/27 08:52:15;;;;;;;1.93;0.80;;;;;;;19.56;43.55;98315.44;4991231;28;20203;-72
2021/05/27 08:54:43;;;;;;;2.40;0.90;;;;;;;19.53;41.47;98317.81;4996514;28;20619;-72
2021/05/27 08:57:09;;;;;;;3.30;0.90;;;;;;;20.60;41.05;98316.94;4990327;28;20251;-73
2021/05/27 08:59:36;;;;;;;1.20;0.73;;;;;;;21.67;38.28;98315.56;4982007;28;20208;-72
2021/05/27 09:02:05;;;;;;;2.13;0.83;;;;;;;20.98;38.78;98316.78;4991007;28;20212;-72
2021/05/27 09:04:33;;;;;;;5.70;0.90;;;;;;;20.36;38.69;98323.75;4985525;28;20271;-72
2021/05/27 09:07:00;;;;;;;2.17;0.80;;;;;;;20.62;35.92;98331.88;4990353;28;20228;-72
2021/05/27 09:09:48;;;;;;;1.30;0.67;;;;;;;22.74;34.00;98330.09;4987529;28;20212;-72
2021/05/27 09:12:33;;;;;;;0.93;0.60;;;;;;;21.72;35.65;98334.66;4993046;28;20202;-72
2021/05/27 09:15:01;;;;;;;1.97;0.90;;;;;;;20.25;37.78;98332.84;4984456;28;20260;-72
2021/05/27 09:17:42;;;;;;;5.10;1.10;;;;;;;20.64;37.32;98331.63;4994899;28;20570;-72
2021/05/27 09:20:15;;;;;;;1.80;0.93;;;;;;;20.93;37.10;98328.38;4991662;28;20208;-72
2021/05/27 09:22:42;;;;;;;1.07;0.80;;;;;;;21.46;36.18;98336.38;5004097;28;20211;-72
2021/05/27 09:25:29;;;;;;;2.37;0.80;;;;;;;20.63;37.38;98333.50;4984152;28;20632;-73
2021/05/27 09:27:57;;;;;;;1.73;0.70;;;;;;;20.62;37.78;98331.06;4986574;28;20596;-73
2021/05/27 09:30:24;;;;;;;2.83;0.70;;;;;;;21.57;36.06;98345.41;4996571;28;20723;-72
2021/05/27 09:32:52;;;;;;;1.73;0.63;;;;;;;20.88;36.18;98344.59;4994470;28;20217;-73
2021/05/27 09:35:21;;;;;;;2.37;0.83;;;;;;;21.14;36.73;98335.63;4999346;28;20213;-75
2021/05/27 09:37:50;;;;;;;3.93;1.20;;;;;;;21.09;36.80;98330.16;4998775;28;20215;-72
2021/05/27 09:40:32;;;;;;;2.60;0.80;;;;;;;21.42;35.98;98337.16;4986002;28;20205;-72
2021/05/27 09:42:59;;;;;;;3.47;0.90;;;;;;;21.46;36.58;98341.81;4993476;28;20636;-72
2021/05/27 09:45:28;;;;;;;2.53;0.90;;;;;;;21.06;37.78;98335.28;4984810;28;20235;-73
2021/05/27 09:47:55;;;;;;;1.80;0.80;;;;;;;21.50;35.46;98350.25;4985201;28;20208;-74
2021/05/27 09:50:31;;;;;;;1.70;0.80;;;;;;;21.22;36.09;98351.41;4986729;28;20236;-73
2021/05/27 09:53:12;;;;;;;1.83;0.67;;;;;;;21.27;37.25;98347.91;4993124;28;20205;-73
2021/05/27 09:55:38;;;;;;;1.70;0.93;;;;;;;21.19;36.58;98356.56;4981525;28;20235;-75
2021/05/27 09:58:10;;;;;;;2.00;0.90;;;;;;;21.35;35.84;98356.41;4985494;28;20212;-72
2021/05/27 10:00:37;;;;;;;3.03;0.93;;;;;;;21.13;37.16;98350.25;4983165;28;20240;-73
2021/05/27 10:03:32;;;;;;;2.07;0.80;;;;;;;20.19;37.55;98356.38;4991123;28;20208;-73
2021/05/27 10:06:02;;;;;;;1.70;0.80;;;;;;;21.02;35.94;98358.59;4988077;28;20234;-72
2021/05/27 10:08:30;;;;;;;1.67;0.70;;;;;;;21.42;34.28;98358.88;5002128;28;20192;-74
2021/05/27 10:10:57;;;;;;;1.00;0.60;;;;;;;20.00;37.29;98351.47;4992036;28;20220;-73
2021/05/27 10:13:27;;;;;;;2.73;0.80;;;;;;;21.00;35.42;98344.44;4997583;28;20210;-73
2021/05/27 10:15:54;;;;;;;1.97;0.80;;;;;;;21.52;34.65;98348.09;4987695;28;20713;-74
2021/05/27 10:18:23;;;;;;;0.67;0.43;;;;;;;21.45;34.46;98351.06;4998353;28;20995;-71
2021/05/27 10:20:50;;;;;;;0.50;0.50;;;;;;;19.94;38.01;98356.03;4992490;28;20606;-72
2021/05/27 10:23:19;;;;;;;1.33;0.93;;;;;;;20.15;37.50;98351.69;4992255;28;20216;-73
2021/05/27 10:25:46;;;;;;;2.33;0.80;;;;;;;20.86;36.08;98352.19;4997123;28;20938;-71
2021/05/27 10:28:16;;;;;;;1.73;1.00;;;;;;;21.04;36.28;98351.00;4992523;28;20212;-72
2021/05/27 10:30:45;;;;;;;1.60;0.60;;;;;;;19.91;38.74;98355.72;4991838;28;20252;-70
2021/05/27 10:33:19;;;;;;;2.90;0.93;;;;;;;20.59;38.42;98351.38;4991370;28;20207;-71
2021/05/27 10:35:48;;;;;;;1.40;0.80;;;;;;;19.93;38.86;98357.09;4983430;28;20224;-70
2021/05/27 10:38:15;;;;;;;2.43;0.80;;;;;;;20.01;39.18;98350.44;4999110;28;20213;-73
2021/05/27 10:40:47;;;;;;;1.87;0.90;;;;;;;19.98;40.29;98346.34;4990980;28;20234;-73
2021/05/27 10:43:15;;;;;;;1.03;0.73;;;;;;;19.78;42.38;98340.66;5002483;28;20201;-73
2021/05/27 10:46:02;;;;;;;3.27;0.87;;;;;;;20.62;40.09;98336.50;4995989;28;20260;-70
2021/05/27 10:48:31;;;;;;;2.77;0.77;;;;;;;21.50;38.09;98339.38;4995676;28;20208;-71
2021/05/27 10:51:09;;;;;;;2.23;0.93;;;;;;;22.09;37.72;98341.63;4985312;28;20588;-71
2021/05/27 10:53:53;;;;;;;3.67;0.90;;;;;;;21.41;38.09;98336.34;4988019;28;20199;-71
2021/05/27 10:56:22;;;;;;;1.17;0.80;;;;;;;22.20;36.70;98342.47;4993740;28;20315;-71
2021/05/27 10:59:11;;;;;;;2.10;0.83;;;;;;;21.64;37.83;98333.22;4996658;28;20621;-69
2021/05/27 11:02:00;;;;;;;0.73;0.70;;;;;;;22.55;36.83;98345.34;4994003;28;20208;-70
2021/05/27 11:04:32;;;;;;;6.07;1.10;;;;;;;20.76;38.94;98345.81;4991238;28;20203;-69
2021/05/27 11:07:16;;;;;;;2.13;1.00;;;;;;;21.92;36.36;98338.28;4999613;28;20232;-69
2021/05/27 11:09:45;;;;;;;1.27;0.87;;;;;;;21.54;36.98;98343.22;4996919;28;20212;-70
2021/05/27 11:12:24;;;;;;;1.37;0.70;;;;;;;23.17;34.88;98340.47;4999225;28;20256;-73
2021/05/27 11:15:11;;;;;;;2.63;0.90;;;;;;;22.63;34.86;98345.63;5003676;28;20217;-69
2021/05/27 11:17:39;;;;;;;1.17;0.90;;;;;;;23.04;33.88;98347.28;4991566;28;20254;-70
2021/05/27 11:20:08;;;;;;;1.93;1.10;;;;;;;22.57;34.48;98345.88;5003504;28;20204;-70
2021/05/27 11:22:42;;;;;;;2.90;0.80;;;;;;;21.46;37.12;98336.38;4995217;28;20211;-71
2021/05/27 11:25:26;;;;;;;2.30;0.90;;;;;;;21.94;35.39;98349.72;4983070;28;20209;-70
2021/05/27 11:27:56;;;;;;;1.10;1.00;;;;;;;21.96;35.07;98344.00;4998323;28;20218;-72
2021/05/27 11:30:24;;;;;;;2.07;0.73;;;;;;;21.86;35.47;98347.50;5004391;28;20283;-70
2021/05/27 11:32:53;;;;;;;3.43;0.80;;;;;;;21.67;35.53;98340.03;5000616;28;20345;-69
2021/05/27 11:35:21;;;;;;;0.70;0.60;;;;;;;22.35;35.89;98347.97;4990107;28;20212;-69
2021/05/27 11:37:49;;;;;;;1.77;0.70;;;;;;;23.18;33.21;98339.41;4988019;28;20252;-70
2021/05/27 11:40:18;;;;;;;0.90;0.70;;;;;;;23.63;32.57;98334.75;4988287;28;20203;-70
2021/05/27 11:42:49;;;;;;;1.93;1.10;;;;;;;23.89;33.46;98330.03;4994695;28;20218;-71
2021/05/27 11:45:17;;;;;;;5.60;0.80;;;;;;;23.59;32.41;98351.91;4987039;28;20208;-70